createdAt,value
2023-01-28T00:01:17.208Z,101187.02
2023-01-28T00:03:45.149Z,101186.84
2023-01-28T00:06:14.902Z,101187.60
2023-01-28T00:08:42.958Z,101190.17
2023-01-28T00:11:13.172Z,101195.59
2023-01-28T00:13:41.743Z,101195.48
2023-01-28T00:16:10.037Z,101196.52
2023-01-28T00:18:38.251Z,101196.14
2023-01-28T00:21:14.212Z,101200.35
2023-01-28T00:23:43.527Z,101203.47
2023-01-28T00:26:13.702Z,101200.63
2023-01-28T00:28:41.997Z,101194.86
2023-01-28T00:31:16.294Z,101199.23
2023-01-28T00:33:45.277Z,101193.71
2023-01-28T00:36:14.417Z,101192.72
2023-01-28T00:38:43.481Z,101200.77
2023-01-28T00:41:14.018Z,101198.09
2023-01-28T00:43:42.848Z,101203.77
2023-01-28T00:46:12.351Z,101203.89
2023-01-28T00:48:42.082Z,101202.02
2023-01-28T00:51:12.929Z,101204.02
2023-01-28T00:53:41.256Z,101203.80
2023-01-28T00:56:12.764Z,101202.91
2023-01-28T00:58:40.496Z,101206.84
2023-01-28T01:01:20.242Z,101200.55
2023-01-28T01:03:57.379Z,101201.13
2023-01-28T01:06:25.266Z,101199.75
2023-01-28T01:08:52.921Z,101198.25
2023-01-28T01:11:20.650Z,101199.56
2023-01-28T01:13:56.966Z,101201.88
2023-01-28T01:16:28.842Z,101202.00
2023-01-28T01:18:56.874Z,101201.44
2023-01-28T01:21:27.673Z,101198.30
2023-01-28T01:23:55.707Z,101200.73
2023-01-28T01:26:24.536Z,101198.54
2023-01-28T01:28:52.568Z,101200.91
2023-01-28T01:31:22.150Z,101201.71
2023-01-28T01:33:51.782Z,101199.31
2023-01-28T01:36:21.945Z,101196.02
2023-01-28T01:38:55.024Z,101196.07
2023-01-28T01:41:27.338Z,101193.30
2023-01-28T01:43:56.707Z,101193.85
2023-01-28T01:46:38.836Z,101195.76
2023-01-28T01:49:17.349Z,101194.46
2023-01-28T01:51:47.191Z,101195.86
2023-01-28T01:54:15.609Z,101197.27
2023-01-28T01:56:44.826Z,101199.14
2023-01-28T01:59:17.987Z,101203.30
2023-01-28T02:01:45.912Z,101199.61
2023-01-28T02:04:25.315Z,101200.23
2023-01-28T02:06:53.183Z,101201.13
2023-01-28T02:09:33.211Z,101205.48
2023-01-28T02:12:08.885Z,101203.34
2023-01-28T02:14:42.086Z,101207.40
2023-01-28T02:17:10.117Z,101205.49
2023-01-28T02:19:46.854Z,101202.37
2023-01-28T02:22:26.559Z,101204.38
2023-01-28T02:25:02.262Z,101201.45
2023-01-28T02:27:58.292Z,101204.45
2023-01-28T02:30:32.964Z,101200.49
2023-01-28T02:33:37.306Z,101197.91
2023-01-28T02:36:34.333Z,101196.12
2023-01-28T02:39:10.816Z,101198.39
2023-01-28T02:41:56.374Z,101199.08
2023-01-28T02:44:24.613Z,101198.41
2023-01-28T02:47:12.507Z,101201.56
2023-01-28T02:49:42.959Z,101203.52
2023-01-28T02:52:45.687Z,101202.02
2023-01-28T02:55:32.827Z,101207.51
2023-01-28T02:58:13.469Z,101207.39
2023-01-28T03:01:02.346Z,101209.27
2023-01-28T03:03:38.547Z,101209.58
2023-01-28T03:06:11.345Z,101211.42
2023-01-28T03:09:06.816Z,101210.23
2023-01-28T03:12:06.765Z,101204.06
2023-01-28T03:14:54.505Z,101205.11
2023-01-28T03:17:49.581Z,101205.87
2023-01-28T03:20:36.217Z,101209.59
2023-01-28T03:23:30.722Z,101206.80
2023-01-28T03:26:22.739Z,101207.05
2023-01-28T03:29:10.834Z,101207.61
2023-01-28T03:31:57.458Z,101212.71
2023-01-28T03:34:44.246Z,101213.37
2023-01-28T03:37:15.141Z,101211.48
2023-01-28T03:40:07.615Z,101207.83
2023-01-28T03:42:35.570Z,101209.17
2023-01-28T03:45:14.906Z,101207.67
2023-01-28T03:47:44.190Z,101207.48
2023-01-28T03:50:12.037Z,101203.77
2023-01-28T03:52:54.097Z,101206.34
2023-01-28T03:55:31.876Z,101208.86
2023-01-28T03:57:59.616Z,101210.81
2023-01-28T04:00:27.273Z,101213.30
2023-01-28T04:02:56.446Z,101207.85
2023-01-28T04:05:25.969Z,101211.59
2023-01-28T04:07:57.202Z,101209.71
2023-01-28T04:10:53.824Z,101211.95
2023-01-28T04:13:30.695Z,101207.86
2023-01-28T04:15:58.808Z,101206.33
2023-01-28T04:18:27.506Z,101203.77
2023-01-28T04:20:57.212Z,101205.78
2023-01-28T04:23:24.923Z,101204.16
2023-01-28T04:25:53.210Z,101204.74
2023-01-28T04:28:22.214Z,101201.37
2023-01-28T04:30:52.478Z,101202.15
2023-01-28T04:33:46.475Z,101203.80
2023-01-28T04:36:25.988Z,101206.30
2023-01-28T04:39:23.219Z,101211.87
2023-01-28T04:42:20.068Z,101211.95
2023-01-28T04:45:05.477Z,101214.64
2023-01-28T04:47:59.653Z,101216.25
2023-01-28T04:50:47.669Z,101210.89
2023-01-28T04:53:35.159Z,101212.05
2023-01-28T04:56:08.641Z,101214.52
2023-01-28T04:58:37.206Z,101210.76
2023-01-28T05:01:12.773Z,101216.27
2023-01-28T05:03:40.580Z,101215.08
2023-01-28T05:06:09.058Z,101215.52
2023-01-28T05:08:48.002Z,101215.20
2023-01-28T05:11:16.797Z,101217.60
2023-01-28T05:13:46.110Z,101219.46
2023-01-28T05:16:14.841Z,101220.05
2023-01-28T05:18:44.869Z,101222.00
2023-01-28T05:21:15.550Z,101224.30
2023-01-28T05:23:44.159Z,101226.66
2023-01-28T05:26:11.871Z,101221.92
2023-01-28T05:28:39.532Z,101228.06
2023-01-28T05:31:10.167Z,101226.39
2023-01-28T05:33:38.489Z,101228.92
2023-01-28T05:36:08.958Z,101232.11
2023-01-28T05:38:36.730Z,101230.30
2023-01-28T05:41:04.546Z,101232.05
2023-01-28T05:43:33.107Z,101229.34
2023-01-28T05:46:26.917Z,101233.67
2023-01-28T05:49:08.582Z,101234.52
2023-01-28T05:51:51.503Z,101234.57
2023-01-28T05:54:21.412Z,101232.29
2023-01-28T05:56:49.300Z,101231.95
2023-01-28T05:59:18.195Z,101229.10
2023-01-28T06:01:47.565Z,101231.76
2023-01-28T06:04:18.344Z,101235.96
2023-01-28T06:06:46.390Z,101233.23
2023-01-28T06:09:14.146Z,101239.83
2023-01-28T06:11:41.962Z,101236.16
2023-01-28T06:14:09.653Z,101237.73
2023-01-28T06:17:03.493Z,101238.98
2023-01-28T06:19:39.327Z,101242.56
2023-01-28T06:22:08.118Z,101247.83
2023-01-28T06:24:36.195Z,101248.83
2023-01-28T06:27:04.301Z,101246.88
2023-01-28T06:29:32.083Z,101251.10
2023-01-28T06:31:59.793Z,101250.77
2023-01-28T06:34:27.484Z,101254.05
2023-01-28T06:36:55.146Z,101257.60
2023-01-28T06:39:22.939Z,101261.20
2023-01-28T06:41:50.920Z,101260.65
2023-01-28T06:44:19.106Z,101262.04
2023-01-28T06:46:46.811Z,101262.23
2023-01-28T06:49:14.475Z,101267.64
2023-01-28T06:51:42.245Z,101267.86
2023-01-28T06:54:09.878Z,101268.51
2023-01-28T06:56:37.493Z,101272.63
2023-01-28T06:59:05.308Z,101275.10
2023-01-28T07:01:33.622Z,101278.29
2023-01-28T07:04:01.356Z,101278.02
2023-01-28T07:06:29.095Z,101277.76
2023-01-28T07:08:56.727Z,101281.52
2023-01-28T07:11:24.352Z,101283.67
2023-01-28T07:13:52.082Z,101290.59
2023-01-28T07:16:19.755Z,101292.17
2023-01-28T07:18:47.512Z,101291.59
2023-01-28T07:21:15.303Z,101293.45
2023-01-28T07:23:43.050Z,101290.98
2023-01-28T07:26:10.692Z,101291.48
2023-01-28T07:28:38.390Z,101297.59
2023-01-28T07:31:06.071Z,101291.94
2023-01-28T07:33:33.799Z,101291.48
2023-01-28T07:36:01.490Z,101288.59
2023-01-28T07:38:29.322Z,101291.16
2023-01-28T07:40:57.000Z,101293.02
2023-01-28T07:43:24.768Z,101299.04
2023-01-28T07:45:52.384Z,101302.17
2023-01-28T07:48:20.392Z,101302.64
2023-01-28T07:50:49.658Z,101302.11
2023-01-28T07:53:17.829Z,101304.21
2023-01-28T07:55:45.774Z,101301.05
2023-01-28T07:58:13.483Z,101297.27
2023-01-28T08:00:41.342Z,101294.61
2023-01-28T08:03:15.966Z,101294.07
2023-01-28T08:05:49.081Z,101298.01
2023-01-28T08:08:17.636Z,101304.03
2023-01-28T08:10:45.773Z,101299.80
2023-01-28T08:13:14.916Z,101299.69
2023-01-28T08:15:42.977Z,101297.94
2023-01-28T08:18:13.292Z,101300.67
2023-01-28T08:20:42.906Z,101297.89
2023-01-28T08:23:16.738Z,101297.38
2023-01-28T08:25:45.220Z,101299.35
2023-01-28T08:28:14.068Z,101293.44
2023-01-28T08:30:42.024Z,101298.70
2023-01-28T08:33:12.517Z,101296.79
2023-01-28T08:35:40.377Z,101294.56
2023-01-28T08:38:08.737Z,101295.48
2023-01-28T08:40:36.829Z,101290.64
2023-01-28T08:43:05.442Z,101290.61
2023-01-28T08:45:33.510Z,101294.81
2023-01-28T08:48:04.002Z,101293.85
2023-01-28T08:50:35.023Z,101294.16
2023-01-28T08:53:05.283Z,101294.40
2023-01-28T08:55:34.112Z,101295.71
2023-01-28T08:58:03.684Z,101299.35
2023-01-28T09:00:31.946Z,101298.89
2023-01-28T09:02:59.674Z,101301.48
2023-01-28T09:05:27.571Z,101302.92
2023-01-28T09:07:55.337Z,101307.60
2023-01-28T09:10:23.086Z,101308.05
2023-01-28T09:12:50.735Z,101310.51
2023-01-28T09:15:18.525Z,101311.16
2023-01-28T09:17:46.130Z,101309.96
2023-01-28T09:20:14.249Z,101316.44
2023-01-28T09:22:42.231Z,101320.77
2023-01-28T09:25:10.220Z,101325.52
2023-01-28T09:27:37.901Z,101328.33
2023-01-28T09:30:07.087Z,101331.96
2023-01-28T09:32:34.988Z,101333.02
2023-01-28T09:35:03.393Z,101333.87
2023-01-28T09:37:31.095Z,101334.11
2023-01-28T09:39:58.783Z,101333.68
2023-01-28T09:42:44.033Z,101336.38
2023-01-28T09:45:19.379Z,101338.77
2023-01-28T09:48:03.132Z,101334.71
2023-01-28T09:50:35.871Z,101336.06
2023-01-28T09:53:12.499Z,101327.94
2023-01-28T09:55:44.552Z,101323.61
2023-01-28T09:58:15.681Z,101324.51
2023-01-28T10:01:10.214Z,101320.58
2023-01-28T10:03:43.651Z,101317.23
2023-01-28T10:06:17.670Z,101317.48
2023-01-28T10:09:03.669Z,101320.02
2023-01-28T10:11:43.388Z,101317.83
2023-01-28T10:14:13.961Z,101314.84
2023-01-28T10:16:55.399Z,101312.12
2023-01-28T10:19:31.839Z,101310.31
2023-01-28T10:22:07.148Z,101308.42
2023-01-28T10:24:39.621Z,101305.12
2023-01-28T10:27:16.355Z,101305.36
2023-01-28T10:29:46.547Z,101305.70
2023-01-28T10:32:29.770Z,101301.78
2023-01-28T10:35:04.437Z,101301.77
2023-01-28T10:37:35.749Z,101306.16
2023-01-28T10:40:05.158Z,101303.95
2023-01-28T10:42:35.294Z,101304.85
2023-01-28T10:45:08.804Z,101301.60
2023-01-28T10:47:43.823Z,101303.39
2023-01-28T10:50:19.149Z,101304.44
2023-01-28T10:52:58.382Z,101298.42
2023-01-28T10:55:30.601Z,101297.96
2023-01-28T10:57:59.236Z,101293.51
2023-01-28T11:00:31.773Z,101292.36
2023-01-28T11:02:59.908Z,101297.56
2023-01-28T11:05:30.582Z,101294.84
2023-01-28T11:08:04.112Z,101294.05
2023-01-28T11:10:35.433Z,101292.16
2023-01-28T11:13:05.663Z,101293.30
2023-01-28T11:15:33.675Z,101287.73
2023-01-28T11:18:06.417Z,101288.73
2023-01-28T11:20:41.258Z,101285.24
2023-01-28T11:23:21.900Z,101286.17
2023-01-28T11:26:00.256Z,101283.64
2023-01-28T11:28:28.181Z,101282.14
2023-01-28T11:30:58.468Z,101283.89
2023-01-28T11:33:37.025Z,101282.01
2023-01-28T11:36:15.577Z,101278.14
2023-01-28T11:39:01.604Z,101277.61
2023-01-28T11:41:35.140Z,101277.74
2023-01-28T11:44:19.231Z,101275.71
2023-01-28T11:47:22.187Z,101270.66
2023-01-28T11:50:24.469Z,101265.73
2023-01-28T11:53:06.910Z,101271.49
2023-01-28T11:55:53.618Z,101272.30
2023-01-28T11:58:46.438Z,101269.31
2023-01-28T12:01:22.368Z,101271.38
2023-01-28T12:04:12.003Z,101272.15
2023-01-28T12:06:46.458Z,101270.48
2023-01-28T12:09:56.987Z,101269.55
2023-01-28T12:13:06.469Z,101266.18
2023-01-28T12:16:08.478Z,101271.02
2023-01-28T12:18:54.707Z,101270.94
2023-01-28T12:21:28.536Z,101266.21
2023-01-28T12:24:15.458Z,101266.27
2023-01-28T12:26:59.509Z,101264.20
2023-01-28T12:29:41.422Z,101268.61
2023-01-28T12:32:39.475Z,101268.50
2023-01-28T12:35:07.969Z,101269.32
2023-01-28T12:37:44.690Z,101263.43
2023-01-28T12:40:15.543Z,101262.72
2023-01-28T12:42:47.087Z,101262.33
2023-01-28T12:45:24.651Z,101259.52
2023-01-28T12:48:09.666Z,101256.35
2023-01-28T12:51:07.616Z,101257.15
2023-01-28T12:53:50.630Z,101261.60
2023-01-28T12:56:22.751Z,101263.31
2023-01-28T12:59:05.439Z,101262.02
2023-01-28T13:01:44.520Z,101263.14
2023-01-28T13:04:50.851Z,101266.98
2023-01-28T13:07:27.886Z,101266.90
2023-01-28T13:10:04.613Z,101269.21
2023-01-28T13:12:33.584Z,101270.67
2023-01-28T13:15:02.283Z,101270.36
2023-01-28T13:17:32.353Z,101271.89
2023-01-28T13:20:00.627Z,101267.73
2023-01-28T13:22:38.099Z,101259.77
2023-01-28T13:25:24.408Z,101266.30
2023-01-28T13:28:25.861Z,101268.73
2023-01-28T13:31:04.253Z,101268.36
2023-01-28T13:33:35.760Z,101269.92
2023-01-28T13:36:21.256Z,101270.92
2023-01-28T13:38:59.699Z,101266.89
2023-01-28T13:41:48.326Z,101269.81
2023-01-28T13:44:25.013Z,101268.90
2023-01-28T13:47:24.359Z,101277.38
2023-01-28T13:49:58.227Z,101279.10
2023-01-28T13:52:32.820Z,101283.44
2023-01-28T13:55:30.374Z,101279.04
2023-01-28T13:58:06.469Z,101278.96
2023-01-28T14:00:56.172Z,101278.90
2023-01-28T14:03:23.740Z,101280.37
2023-01-28T14:06:02.813Z,101275.72
2023-01-28T14:08:48.432Z,101279.96
2023-01-28T14:11:43.877Z,101274.44
2023-01-28T14:14:49.178Z,101269.52
2023-01-28T14:17:38.226Z,101273.08
2023-01-28T14:20:17.244Z,101276.23
2023-01-28T14:22:45.744Z,101272.88
2023-01-28T14:25:19.990Z,101277.91
2023-01-28T14:27:52.682Z,101281.04
2023-01-28T14:30:40.818Z,101282.14
2023-01-28T14:33:11.554Z,101282.30
2023-01-28T14:35:46.388Z,101278.89
2023-01-28T14:38:19.820Z,101280.33
2023-01-28T14:40:52.832Z,101279.83
2023-01-28T14:43:25.386Z,101277.60
2023-01-28T14:46:12.023Z,101278.48
2023-01-28T14:49:04.728Z,101279.54
2023-01-28T14:52:03.512Z,101284.66
2023-01-28T14:54:46.962Z,101285.43
2023-01-28T14:57:33.344Z,101287.57
2023-01-28T15:00:08.109Z,101286.65
2023-01-28T15:02:44.339Z,101284.63
2023-01-28T15:05:17.810Z,101284.95
2023-01-28T15:07:49.252Z,101284.17
2023-01-28T15:10:19.438Z,101288.48
2023-01-28T15:13:03.786Z,101287.89
2023-01-28T15:15:35.912Z,101288.98
2023-01-28T15:18:12.318Z,101292.56
2023-01-28T15:20:44.956Z,101292.30
2023-01-28T15:25:49.787Z,101295.27
2023-01-28T15:28:32.165Z,101299.45
2023-01-28T15:30:59.933Z,101301.27
2023-01-28T15:33:28.405Z,101303.88
2023-01-28T15:35:58.516Z,101305.27
2023-01-28T15:38:28.467Z,101302.15
2023-01-28T15:41:01.326Z,101304.39
2023-01-28T15:43:31.467Z,101310.55
2023-01-28T15:46:00.173Z,101308.58
2023-01-28T15:48:33.924Z,101308.08
2023-01-28T15:51:08.811Z,101312.73
2023-01-28T15:53:46.159Z,101314.79
2023-01-28T15:56:15.739Z,101316.36
2023-01-28T15:58:43.529Z,101312.51
2023-01-28T16:01:15.801Z,101316.83
2023-01-28T16:03:45.371Z,101320.17
2023-01-28T16:06:22.309Z,101314.15
2023-01-28T16:08:58.891Z,101311.40
2023-01-28T16:11:32.295Z,101310.81
2023-01-28T16:14:00.775Z,101312.29
2023-01-28T16:16:34.914Z,101313.44
2023-01-28T16:19:06.681Z,101311.59
2023-01-28T16:21:38.540Z,101317.76
2023-01-28T16:24:20.207Z,101322.02
2023-01-28T16:27:00.972Z,101321.10
2023-01-28T16:29:31.055Z,101321.48
2023-01-28T16:32:00.276Z,101322.00
2023-01-28T16:34:27.970Z,101322.10
2023-01-28T16:36:59.975Z,101315.55
2023-01-28T16:39:27.942Z,101315.94
2023-01-28T16:41:56.937Z,101322.49
2023-01-28T16:44:24.580Z,101321.42
2023-01-28T16:46:52.390Z,101317.94
2023-01-28T16:49:20.138Z,101328.07
2023-01-28T16:51:47.782Z,101329.11
2023-01-28T16:54:16.595Z,101330.66
2023-01-28T16:56:46.472Z,101328.90
2023-01-28T16:59:16.289Z,101327.67
2023-01-28T17:01:47.230Z,101331.98
2023-01-28T17:04:14.996Z,101330.84
2023-01-28T17:06:45.099Z,101338.13
2023-01-28T17:09:14.361Z,101333.77
2023-01-28T17:11:42.673Z,101329.77
2023-01-28T17:14:11.085Z,101324.44
2023-01-28T17:16:39.072Z,101326.29
2023-01-28T17:19:06.915Z,101328.61
2023-01-28T17:21:34.670Z,101326.92
2023-01-28T17:24:03.159Z,101324.75
2023-01-28T17:26:31.416Z,101323.59
2023-01-28T17:28:59.043Z,101327.23
2023-01-28T17:31:27.097Z,101318.20
2023-01-28T17:33:56.341Z,101318.96
2023-01-28T17:36:25.755Z,101322.57
2023-01-28T17:38:54.499Z,101322.19
2023-01-28T17:41:22.320Z,101332.51
2023-01-28T17:43:51.321Z,101333.02
2023-01-28T17:46:19.789Z,101333.05
2023-01-28T17:48:47.631Z,101333.39
2023-01-28T17:51:19.556Z,101340.27
2023-01-28T17:53:48.816Z,101343.05
2023-01-28T17:56:22.372Z,101342.03
2023-01-28T17:58:51.960Z,101346.35
2023-01-28T18:01:21.249Z,101345.50
2023-01-28T18:03:49.064Z,101344.70
2023-01-28T18:06:17.076Z,101350.83
2023-01-28T18:08:45.565Z,101353.70
2023-01-28T18:11:15.189Z,101353.02
2023-01-28T18:13:43.323Z,101349.44
2023-01-28T18:16:15.632Z,101351.04
2023-01-28T18:18:43.978Z,101350.93
2023-01-28T18:21:51.759Z,101352.02
2023-01-28T18:24:24.250Z,101355.30
2023-01-28T18:26:55.354Z,101360.25
2023-01-28T18:29:24.155Z,101365.27
2023-01-28T18:31:55.137Z,101364.13
2023-01-28T18:34:25.243Z,101366.77
2023-01-28T18:36:53.684Z,101373.71
2023-01-28T18:39:21.753Z,101378.16
2023-01-28T18:41:53.982Z,101374.25
2023-01-28T18:44:23.313Z,101372.23
2023-01-28T18:46:52.565Z,101377.55
2023-01-28T18:49:20.535Z,101375.88
2023-01-28T18:51:48.417Z,101376.16
2023-01-28T18:54:16.308Z,101378.42
2023-01-28T18:56:44.344Z,101376.91
2023-01-28T18:59:14.126Z,101371.43
2023-01-28T19:01:47.630Z,101366.84
2023-01-28T19:04:15.678Z,101366.54
2023-01-28T19:06:43.525Z,101364.71
2023-01-28T19:09:13.127Z,101365.04
2023-01-28T19:11:42.730Z,101366.00
2023-01-28T19:14:13.967Z,101363.98
2023-01-28T19:16:41.738Z,101366.39
2023-01-28T19:19:09.981Z,101359.96
2023-01-28T19:21:38.049Z,101361.01
2023-01-28T19:24:09.678Z,101363.23
2023-01-28T19:26:38.632Z,101362.86
2023-01-28T19:29:09.350Z,101363.91
2023-01-28T19:31:38.417Z,101371.13
2023-01-28T19:34:06.155Z,101373.73
2023-01-28T19:36:34.552Z,101373.30
2023-01-28T19:39:06.636Z,101376.66
2023-01-28T19:41:36.047Z,101381.38
2023-01-28T19:44:04.901Z,101382.09
2023-01-28T19:46:33.914Z,101378.64
2023-01-28T19:49:02.109Z,101383.48
2023-01-28T19:51:29.987Z,101385.30
2023-01-28T19:53:57.963Z,101385.64
2023-01-28T19:56:26.831Z,101386.11
2023-01-28T19:58:54.871Z,101382.42
2023-01-28T20:01:28.656Z,101383.30
2023-01-28T20:03:59.603Z,101382.42
2023-01-28T20:06:29.563Z,101380.02
2023-01-28T20:09:07.618Z,101387.42
2023-01-28T20:11:36.073Z,101389.98
2023-01-28T20:14:03.744Z,101388.45
2023-01-28T20:16:33.082Z,101387.34
2023-01-28T20:19:05.376Z,101388.73
2023-01-28T20:21:34.214Z,101390.81
2023-01-28T20:24:02.814Z,101389.29
2023-01-28T20:26:33.207Z,101389.52
2023-01-28T20:29:13.221Z,101389.41
2023-01-28T20:31:42.063Z,101391.48
2023-01-28T20:34:16.336Z,101402.05
2023-01-28T20:36:44.562Z,101405.48
2023-01-28T20:39:13.811Z,101411.37
2023-01-28T20:41:41.581Z,101406.77
2023-01-28T20:44:09.491Z,101401.17
2023-01-28T20:46:38.792Z,101399.59
2023-01-28T20:49:06.746Z,101407.53
2023-01-28T20:51:35.825Z,101405.98
2023-01-28T20:54:04.012Z,101403.92
2023-01-28T20:56:32.143Z,101406.25
2023-01-28T20:59:05.241Z,101409.83
2023-01-28T21:01:35.673Z,101414.58
2023-01-28T21:04:05.338Z,101418.55
2023-01-28T21:06:33.511Z,101416.84
2023-01-28T21:09:01.395Z,101422.47
2023-01-28T21:11:29.602Z,101423.98
2023-01-28T21:13:57.524Z,101429.39
2023-01-28T21:16:26.036Z,101432.14
2023-01-28T21:18:53.649Z,101430.52
2023-01-28T21:21:27.068Z,101430.07
2023-01-28T21:23:57.786Z,101428.84
2023-01-28T21:26:26.590Z,101422.22
2023-01-28T21:28:56.088Z,101426.68
2023-01-28T21:31:25.814Z,101424.05
2023-01-28T21:33:58.434Z,101417.52
2023-01-28T21:36:26.786Z,101417.95
2023-01-28T21:38:56.953Z,101413.49
2023-01-28T21:41:25.019Z,101409.49
2023-01-28T21:43:54.567Z,101401.21
2023-01-28T21:46:25.040Z,101395.41
2023-01-28T21:48:56.656Z,101399.00
2023-01-28T21:51:38.094Z,101407.83
2023-01-28T21:54:09.895Z,101409.49
2023-01-28T21:56:38.226Z,101404.23
2023-01-28T21:59:24.559Z,101398.86
2023-01-28T22:01:52.284Z,101397.20
2023-01-28T22:04:20.147Z,101399.83
2023-01-28T22:06:48.093Z,101402.65
2023-01-28T22:09:16.087Z,101400.60
2023-01-28T22:11:45.067Z,101390.35
2023-01-28T22:14:13.349Z,101386.91
2023-01-28T22:16:41.222Z,101377.92
2023-01-28T22:19:09.259Z,101368.72
2023-01-28T22:21:41.108Z,101364.22
2023-01-28T22:24:12.007Z,101356.42
2023-01-28T22:26:40.918Z,101355.88
2023-01-28T22:29:09.421Z,101364.91
2023-01-28T22:31:37.770Z,101365.54
2023-01-28T22:34:06.354Z,101358.95
2023-01-28T22:36:35.000Z,101364.16
2023-01-28T22:39:06.071Z,101362.88
2023-01-28T22:41:34.524Z,101363.29
2023-01-28T22:44:03.739Z,101361.96
2023-01-28T22:46:33.471Z,101364.73
2023-01-28T22:49:02.021Z,101366.35
2023-01-28T22:51:32.159Z,101369.46
2023-01-28T22:54:00.104Z,101374.10
2023-01-28T22:56:29.994Z,101378.29
2023-01-28T22:59:00.528Z,101385.02
2023-01-28T23:01:29.806Z,101387.66
2023-01-28T23:03:58.318Z,101386.83
2023-01-28T23:06:27.459Z,101387.45
2023-01-28T23:08:56.410Z,101393.86
2023-01-28T23:11:25.313Z,101398.60
2023-01-28T23:14:17.110Z,101407.02
2023-01-28T23:17:04.564Z,101410.70
2023-01-28T23:19:51.532Z,101405.34
2023-01-28T23:22:45.072Z,101413.59
2023-01-28T23:25:13.820Z,101412.71
2023-01-28T23:27:42.088Z,101406.07
2023-01-28T23:30:11.602Z,101402.39
2023-01-28T23:32:45.669Z,101398.37
2023-01-28T23:35:13.494Z,101393.22
2023-01-28T23:37:41.754Z,101390.23
2023-01-28T23:40:10.230Z,101389.83
2023-01-28T23:42:38.270Z,101385.94
2023-01-28T23:45:06.841Z,101389.88
2023-01-28T23:47:34.579Z,101385.85
2023-01-28T23:50:02.394Z,101390.94
2023-01-28T23:52:30.085Z,101395.91
2023-01-28T23:54:57.792Z,101393.07
2023-01-28T23:57:25.483Z,101393.54
2023-01-28T23:59:53.318Z,101393.17
